Time;durP1;ratioP1;P1;durP2;ratioP2;P2;SDS_P1;SDS_P2;PMS_P1;PMS_P2;Temp;Humidity;BMP_temperature;BMP_pressure;BME280_temperature;BME280_humidity;BME280_pressure;Samples;Min_cycle;Max_cycle;Signal;HPM_P1;HPM_P2
2021/06/27 00:00:20;;;;;;;16.73;12.27;;;21.70;70.80;;;;;;5053505;28;20158;-65
2021/06/27 00:02:45;;;;;;;13.35;11.02;;;21.60;71.00;;;;;;5053190;28;20531;-65
2021/06/27 00:05:14;;;;;;;17.08;13.55;;;21.70;70.90;;;;;;5035924;28;20128;-65
2021/06/27 00:07:39;;;;;;;15.38;11.65;;;21.50;71.30;;;;;;5053613;28;20555;-65
2021/06/27 00:10:09;;;;;;;16.02;12.45;;;21.40;71.90;;;;;;5035891;28;20021;-66
2021/06/27 00:12:34;;;;;;;16.23;12.85;;;21.40;72.10;;;;;;5053582;28;20084;-65
2021/06/27 00:15:00;;;;;;;16.27;12.50;;;21.30;72.30;;;;;;5052708;28;20061;-65
2021/06/27 00:17:26;;;;;;;14.45;11.07;;;21.20;72.80;;;;;;5053250;28;20062;-65
2021/06/27 00:19:51;;;;;;;15.60;11.77;;;21.30;72.80;;;;;;5053345;28;20118;-65
2021/06/27 00:22:17;;;;;;;16.25;11.82;;;21.30;72.50;;;;;;5035545;28;20029;-65
2021/06/27 00:24:44;;;;;;;15.55;12.07;;;21.40;72.40;;;;;;5052643;28;20162;-65
2021/06/27 00:27:10;;;;;;;13.63;10.80;;;21.40;72.40;;;;;;5052851;28;20155;-65
2021/06/27 00:29:35;;;;;;;16.63;12.05;;;21.30;72.30;;;;;;5052849;28;20017;-66
2021/06/27 00:32:01;;;;;;;14.95;12.27;;;21.30;72.50;;;;;;5052864;28;20033;-65
2021/06/27 00:34:27;;;;;;;15.82;12.18;;;21.30;72.60;;;;;;5053702;28;20032;-65
2021/06/27 00:36:52;;;;;;;15.65;12.07;;;21.20;73.30;;;;;;5052959;28;20104;-65
2021/06/27 00:39:18;;;;;;;16.23;12.65;;;21.20;73.10;;;;;;5035280;28;20029;-65
2021/06/27 00:41:43;;;;;;;18.63;12.50;;;21.20;73.00;;;;;;5035300;28;20028;-66
2021/06/27 00:44:09;;;;;;;16.58;12.48;;;21.20;72.90;;;;;;5053079;28;20083;-65
2021/06/27 00:46:34;;;;;;;15.50;12.27;;;21.00;73.40;;;;;;5052837;28;20041;-65
2021/06/27 00:49:00;;;;;;;15.27;11.82;;;20.90;74.00;;;;;;5052951;28;20089;-66
2021/06/27 00:51:25;;;;;;;13.07;10.70;;;20.90;74.30;;;;;;5034673;28;20040;-65
2021/06/27 00:53:52;;;;;;;14.73;10.95;;;21.00;74.10;;;;;;5035169;28;20504;-65
2021/06/27 00:56:18;;;;;;;12.57;10.27;;;21.10;73.60;;;;;;5053540;28;20382;-65
2021/06/27 00:58:44;;;;;;;13.43;10.32;;;21.20;73.10;;;;;;5052299;28;20021;-65
2021/06/27 01:01:10;;;;;;;13.35;10.02;;;21.30;72.70;;;;;;5034835;28;20033;-64
2021/06/27 01:03:36;;;;;;;13.00;10.48;;;21.30;72.70;;;;;;5047560;28;20029;-65
2021/06/27 01:06:02;;;;;;;12.88;10.13;;;21.30;72.70;;;;;;5052031;28;20088;-65
2021/06/27 01:08:28;;;;;;;14.18;10.88;;;21.30;72.60;;;;;;5052343;28;20036;-65
2021/06/27 01:10:54;;;;;;;15.00;11.10;;;21.20;72.70;;;;;;5052403;28;20021;-66
2021/06/27 01:13:22;;;;;;;14.75;11.35;;;21.20;72.80;;;;;;5034775;28;20052;-65
2021/06/27 01:15:52;;;;;;;13.38;10.10;;;21.20;72.80;;;;;;5052750;28;20475;-65
2021/06/27 01:18:18;;;;;;;16.25;13.15;;;21.20;72.80;;;;;;5034598;28;20049;-65
2021/06/27 01:20:44;;;;;;;15.52;12.05;;;21.20;72.90;;;;;;5052261;28;20068;-65
2021/06/27 01:23:12;;;;;;;16.60;13.68;;;21.20;73.10;;;;;;5052303;28;20055;-65
2021/06/27 01:25:43;;;;;;;17.50;13.73;;;21.10;73.30;;;;;;5034094;28;20121;-65
2021/06/27 01:28:10;;;;;;;16.02;13.25;;;21.00;73.70;;;;;;5051681;28;20028;-65
2021/06/27 01:30:35;;;;;;;18.42;14.50;;;20.90;73.80;;;;;;5052396;28;20031;-65
2021/06/27 01:33:08;;;;;;;19.65;14.85;;;20.90;73.90;;;;;;5052476;28;20029;-66
2021/06/27 01:35:34;;;;;;;18.23;14.43;;;20.90;74.20;;;;;;5052062;28;20113;-65
2021/06/27 01:38:01;;;;;;;15.77;12.00;;;20.90;74.30;;;;;;5033879;28;20060;-65
2021/06/27 01:40:29;;;;;;;14.27;11.65;;;20.90;74.20;;;;;;5051837;28;20032;-65
2021/06/27 01:43:24;;;;;;;15.43;11.18;;;21.00;73.80;;;;;;5051781;28;20021;-65
2021/06/27 01:45:56;;;;;;;14.05;10.95;;;21.00;73.80;;;;;;5021653;28;20032;-65
2021/06/27 01:48:22;;;;;;;14.93;11.77;;;21.00;73.80;;;;;;5034085;28;20104;-65
2021/06/27 01:50:50;;;;;;;14.70;11.65;;;21.00;73.70;;;;;;5050993;28;20025;-66
2021/06/27 01:53:17;;;;;;;13.98;11.45;;;21.00;74.00;;;;;;5051970;28;20108;-65
2021/06/27 01:55:44;;;;;;;14.60;11.73;;;21.00;73.90;;;;;;5033826;28;20033;-65
2021/06/27 01:58:10;;;;;;;16.30;12.23;;;21.00;74.00;;;;;;5050017;28;20037;-65
2021/06/27 02:00:36;;;;;;;16.23;12.45;;;21.00;74.40;;;;;;5047198;28;20033;-66
2021/06/27 02:03:03;;;;;;;14.73;11.65;;;21.00;74.60;;;;;;5051306;28;20067;-66
2021/06/27 02:05:30;;;;;;;16.88;11.88;;;20.90;74.40;;;;;;5033862;28;20029;-65
2021/06/27 02:07:58;;;;;;;16.67;13.38;;;21.00;74.40;;;;;;5051017;28;20086;-65
2021/06/27 02:10:27;;;;;;;15.93;12.23;;;21.00;74.00;;;;;;5033705;28;20021;-65
2021/06/27 02:12:55;;;;;;;15.88;12.27;;;21.00;74.10;;;;;;5051381;28;20028;-65
2021/06/27 02:15:20;;;;;;;16.30;12.00;;;21.00;74.10;;;;;;5051355;28;20048;-66
2021/06/27 02:18:11;;;;;;;14.40;11.80;;;21.00;74.20;;;;;;5051369;28;20029;-63
2021/06/27 02:20:37;;;;;;;14.95;11.63;;;21.00;74.30;;;;;;5051118;28;20114;-65
2021/06/27 02:23:03;;;;;;;15.95;11.77;;;20.90;74.40;;;;;;5051224;28;20072;-65
2021/06/27 02:25:29;;;;;;;15.38;11.23;;;21.00;74.50;;;;;;5032851;28;20116;-65
2021/06/27 02:27:54;;;;;;;14.55;11.88;;;20.90;74.50;;;;;;5050473;28;20025;-65
2021/06/27 02:30:21;;;;;;;14.70;11.50;;;20.90;74.50;;;;;;5051374;28;20520;-65
2021/06/27 02:32:47;;;;;;;15.77;11.15;;;20.90;74.60;;;;;;5051227;28;20029;-66
2021/06/27 02:35:14;;;;;;;15.90;12.65;;;20.90;74.60;;;;;;5033255;28;20055;-65
2021/06/27 02:37:41;;;;;;;15.88;11.80;;;20.90;74.70;;;;;;5013557;28;20120;-66
2021/06/27 02:40:10;;;;;;;14.88;12.00;;;20.90;74.60;;;;;;5024647;28;20033;-65
2021/06/27 02:42:36;;;;;;;15.80;12.50;;;20.90;74.50;;;;;;5051216;28;20482;-65
2021/06/27 02:45:05;;;;;;;15.73;13.40;;;20.90;74.40;;;;;;5050745;28;20116;-65
2021/06/27 02:47:31;;;;;;;16.67;13.05;;;20.90;74.00;;;;;;5050812;28;20059;-65
2021/06/27 02:49:56;;;;;;;17.90;14.00;;;20.90;73.80;;;;;;5032598;28;20479;-65
2021/06/27 02:52:22;;;;;;;17.75;14.73;;;20.90;74.00;;;;;;5046757;28;20726;-64
2021/06/27 02:54:47;;;;;;;17.63;13.88;;;20.90;74.00;;;;;;5044311;28;20017;-66
2021/06/27 02:57:13;;;;;;;18.90;14.90;;;20.80;74.50;;;;;;5050544;28;20025;-65
2021/06/27 02:59:38;;;;;;;19.55;14.05;;;20.80;74.60;;;;;;5050957;28;20102;-65
2021/06/27 03:02:04;;;;;;;21.20;16.30;;;20.70;74.40;;;;;;5031172;28;20032;-65
2021/06/27 03:04:29;;;;;;;19.98;16.15;;;20.60;74.70;;;;;;5049791;28;20036;-66
2021/06/27 03:06:55;;;;;;;20.02;14.93;;;20.60;74.70;;;;;;5046557;28;20025;-66
2021/06/27 03:09:20;;;;;;;19.13;15.30;;;20.60;75.50;;;;;;5031227;28;20079;-65
2021/06/27 03:11:46;;;;;;;18.10;15.30;;;20.60;75.30;;;;;;5032318;28;20033;-65
2021/06/27 03:14:11;;;;;;;21.13;15.57;;;20.50;75.60;;;;;;5013638;28;20028;-64
2021/06/27 03:16:37;;;;;;;21.20;16.85;;;20.50;75.20;;;;;;5031310;28;20391;-65
2021/06/27 03:19:02;;;;;;;19.63;15.88;;;20.50;75.40;;;;;;5030954;28;20045;-64
2021/06/27 03:21:28;;;;;;;21.92;15.45;;;20.50;75.70;;;;;;5016660;28;20072;-66
2021/06/27 03:23:53;;;;;;;19.77;16.33;;;20.50;75.80;;;;;;5051081;28;20028;-65
2021/06/27 03:26:19;;;;;;;18.92;15.18;;;20.50;75.90;;;;;;5050588;28;20533;-65
2021/06/27 03:28:50;;;;;;;18.65;14.98;;;20.50;75.80;;;;;;5050826;28;20100;-65
2021/06/27 03:31:16;;;;;;;18.67;14.98;;;20.50;75.90;;;;;;5049349;28;20017;-64
2021/06/27 03:33:41;;;;;;;20.52;16.55;;;20.50;75.80;;;;;;5050987;28;20094;-65
2021/06/27 03:36:07;;;;;;;17.88;14.38;;;20.60;75.80;;;;;;5043180;28;20116;-64
2021/06/27 03:39:01;;;;;;;19.33;14.63;;;20.60;75.80;;;;;;5042449;28;20021;-65
2021/06/27 03:41:30;;;;;;;19.65;16.20;;;20.60;75.60;;;;;;5031109;28;20040;-66
2021/06/27 03:43:55;;;;;;;22.08;14.95;;;20.50;75.70;;;;;;5030937;28;20076;-65
2021/06/27 03:46:21;;;;;;;17.85;13.95;;;20.50;75.90;;;;;;5030894;28;20494;-65
2021/06/27 03:48:46;;;;;;;20.50;15.25;;;20.50;76.10;;;;;;5031616;28;20032;-65
2021/06/27 03:51:12;;;;;;;19.85;14.43;;;20.50;76.20;;;;;;5032469;28;20066;-65
2021/06/27 03:53:38;;;;;;;18.25;14.00;;;20.50;75.90;;;;;;5034493;28;20084;-65
2021/06/27 03:56:03;;;;;;;17.70;14.02;;;20.50;75.70;;;;;;5034400;28;20033;-65
2021/06/27 03:58:29;;;;;;;16.85;13.85;;;20.60;75.70;;;;;;5044226;28;20029;-65
2021/06/27 04:00:55;;;;;;;18.80;14.55;;;20.50;75.50;;;;;;5053778;28;20033;-64
2021/06/27 04:03:21;;;;;;;19.38;14.90;;;20.50;76.00;;;;;;5053662;28;20029;-65
2021/06/27 04:05:47;;;;;;;20.17;15.65;;;20.50;76.50;;;;;;5054082;28;20055;-65
2021/06/27 04:08:12;;;;;;;20.85;17.35;;;20.30;77.00;;;;;;5053273;28;20439;-65
2021/06/27 04:10:38;;;;;;;21.58;17.20;;;20.30;77.50;;;;;;5036129;28;20490;-66
2021/06/27 04:13:03;;;;;;;19.95;15.35;;;20.30;77.90;;;;;;5053782;28;20482;-65
2021/06/27 04:15:29;;;;;;;17.52;14.18;;;20.30;77.80;;;;;;5054002;28;20063;-65
2021/06/27 04:17:54;;;;;;;16.90;13.25;;;20.40;77.30;;;;;;5053350;28;20033;-65
2021/06/27 04:20:20;;;;;;;19.13;15.68;;;20.50;76.80;;;;;;5053694;28;20032;-66
2021/06/27 04:22:45;;;;;;;19.23;15.15;;;20.50;77.10;;;;;;5053833;28;20025;-65
2021/06/27 04:25:11;;;;;;;20.77;14.88;;;20.50;77.00;;;;;;5053779;28;20031;-65
2021/06/27 04:27:37;;;;;;;19.17;15.15;;;20.40;77.20;;;;;;5035051;28;20013;-66
2021/06/27 04:30:08;;;;;;;22.73;17.65;;;20.20;79.20;;;;;;5053642;28;20033;-64
2021/06/27 04:32:34;;;;;;;20.65;16.48;;;20.20;78.70;;;;;;5053678;28;20040;-65
2021/06/27 04:34:59;;;;;;;23.17;17.13;;;20.30;78.00;;;;;;5053579;28;20060;-65
2021/06/27 04:37:25;;;;;;;19.27;14.75;;;20.40;78.30;;;;;;5052966;28;20044;-65
2021/06/27 04:39:50;;;;;;;18.70;14.70;;;20.40;78.00;;;;;;5053389;28;20537;-65
2021/06/27 04:42:16;;;;;;;18.20;13.60;;;20.40;78.00;;;;;;5053261;28;20025;-66
2021/06/27 04:44:42;;;;;;;17.58;14.15;;;20.40;77.70;;;;;;5053494;28;20029;-65
2021/06/27 04:47:08;;;;;;;19.67;15.15;;;20.40;78.40;;;;;;5052755;28;20727;-65
2021/06/27 04:49:34;;;;;;;20.05;15.25;;;20.50;77.60;;;;;;5053227;28;20541;-65
2021/06/27 04:52:00;;;;;;;18.40;14.55;;;20.50;78.30;;;;;;5034903;28;20029;-64
2021/06/27 04:54:25;;;;;;;20.67;15.73;;;20.50;78.00;;;;;;5051800;28;20070;-65
2021/06/27 04:56:51;;;;;;;19.83;15.18;;;20.50;77.70;;;;;;5044215;28;20096;-65
2021/06/27 04:59:17;;;;;;;20.42;15.30;;;20.50;78.40;;;;;;5052715;28;20064;-65
2021/06/27 05:01:42;;;;;;;17.58;13.80;;;20.40;79.20;;;;;;5042487;28;20095;-65
2021/06/27 05:04:07;;;;;;;18.33;14.60;;;20.40;78.40;;;;;;5037680;28;20078;-65
2021/06/27 05:06:33;;;;;;;19.92;15.35;;;20.50;78.40;;;;;;5048825;28;20022;-66
2021/06/27 05:08:58;;;;;;;18.30;15.25;;;20.50;78.40;;;;;;5052358;28;20048;-66
2021/06/27 05:11:24;;;;;;;19.48;15.88;;;20.60;78.50;;;;;;5016596;28;20025;-66
2021/06/27 05:13:49;;;;;;;23.65;16.73;;;20.50;79.10;;;;;;5021751;28;20105;-65
2021/06/27 05:16:15;;;;;;;26.13;17.75;;;20.40;80.10;;;;;;5017146;28;20041;-65
2021/06/27 05:18:41;;;;;;;22.48;17.48;;;20.40;81.50;;;;;;5038414;28;20876;-65
2021/06/27 05:21:06;;;;;;;21.73;17.80;;;20.30;81.20;;;;;;5012072;28;20033;-67
2021/06/27 05:23:32;;;;;;;23.35;17.38;;;20.20;81.90;;;;;;5046178;28;20056;-65
2021/06/27 05:25:57;;;;;;;20.65;17.25;;;20.20;82.30;;;;;;5045928;28;20576;-66
2021/06/27 05:28:23;;;;;;;21.95;17.30;;;20.30;81.50;;;;;;5045901;28;20075;-67
2021/06/27 05:30:48;;;;;;;21.80;17.80;;;20.40;81.50;;;;;;5025100;28;20052;-66
2021/06/27 05:33:14;;;;;;;22.08;17.35;;;20.50;81.70;;;;;;5027742;28;20087;-67
2021/06/27 05:35:39;;;;;;;22.65;17.80;;;20.40;81.40;;;;;;5028108;28;20040;-66
2021/06/27 05:38:05;;;;;;;25.23;16.80;;;20.50;81.90;;;;;;5045718;28;20027;-65
2021/06/27 05:40:30;;;;;;;23.05;17.10;;;20.60;81.70;;;;;;5027891;28;20477;-66
2021/06/27 05:42:56;;;;;;;21.92;16.92;;;20.50;81.90;;;;;;5027180;28;20037;-67
2021/06/27 05:45:22;;;;;;;21.67;16.23;;;20.60;80.90;;;;;;5027901;28;20047;-66
2021/06/27 05:47:48;;;;;;;20.67;15.18;;;20.60;80.50;;;;;;5022575;28;20033;-65
2021/06/27 05:50:13;;;;;;;17.13;14.38;;;20.80;79.60;;;;;;5027156;28;20708;-65
2021/06/27 05:52:39;;;;;;;19.20;16.10;;;20.90;79.10;;;;;;5045875;28;20040;-65
2021/06/27 05:55:05;;;;;;;19.00;14.98;;;20.90;78.80;;;;;;5027664;28;20804;-65
2021/06/27 05:57:31;;;;;;;17.67;14.85;;;21.10;78.40;;;;;;5045371;28;20039;-65
2021/06/27 05:59:57;;;;;;;16.90;13.63;;;21.20;78.00;;;;;;5045233;28;20025;-67
2021/06/27 06:02:22;;;;;;;19.23;14.10;;;21.20;77.50;;;;;;5045628;28;20118;-66
2021/06/27 06:04:48;;;;;;;16.63;13.80;;;21.30;77.20;;;;;;5045484;28;20553;-68
2021/06/27 06:07:13;;;;;;;17.38;12.88;;;21.50;76.90;;;;;;5045573;28;20494;-67
2021/06/27 06:09:39;;;;;;;15.18;11.98;;;21.60;76.90;;;;;;5046606;28;20029;-68
2021/06/27 06:12:05;;;;;;;16.20;12.07;;;21.70;76.30;;;;;;5018359;28;20029;-65
2021/06/27 06:14:32;;;;;;;16.13;13.13;;;21.80;77.00;;;;;;5035599;28;20047;-68
2021/06/27 06:16:57;;;;;;;14.73;11.57;;;21.90;75.60;;;;;;5035194;28;20060;-68
2021/06/27 06:19:24;;;;;;;16.00;12.57;;;22.00;76.00;;;;;;5029123;28;20454;-67
2021/06/27 06:21:50;;;;;;;15.65;12.68;;;22.00;74.60;;;;;;5020576;28;20063;-69
2021/06/27 06:24:17;;;;;;;17.63;13.10;;;22.00;74.40;;;;;;5026881;28;20495;-66
2021/06/27 06:26:42;;;;;;;14.48;11.02;;;22.10;73.90;;;;;;5031799;28;20447;-64
2021/06/27 06:29:08;;;;;;;15.63;11.23;;;22.20;73.20;;;;;;5044447;28;20096;-65
2021/06/27 06:31:33;;;;;;;13.27;10.50;;;22.30;73.00;;;;;;5044218;28;20029;-66
2021/06/27 06:33:59;;;;;;;14.48;10.45;;;22.40;71.80;;;;;;5044254;28;20090;-68
2021/06/27 06:36:25;;;;;;;13.93;10.10;;;22.40;72.50;;;;;;5042912;28;20028;-66
2021/06/27 06:38:50;;;;;;;16.20;9.65;;;22.50;71.60;;;;;;5039681;28;20021;-67
2021/06/27 06:41:17;;;;;;;16.15;10.00;;;22.50;71.80;;;;;;5026205;28;20036;-68
2021/06/27 06:43:42;;;;;;;20.35;9.25;;;22.50;71.70;;;;;;5023952;28;20021;-73
2021/06/27 06:46:08;;;;;;;16.00;10.38;;;22.50;71.80;;;;;;5041035;28;20493;-69
2021/06/27 06:48:33;;;;;;;14.55;9.52;;;22.50;71.50;;;;;;5026252;28;20060;-67
2021/06/27 06:50:59;;;;;;;14.40;8.32;;;22.50;71.10;;;;;;5026977;28;20029;-69
2021/06/27 06:53:25;;;;;;;16.63;8.55;;;22.60;70.70;;;;;;5023580;28;20588;-66
2021/06/27 06:55:51;;;;;;;14.20;8.43;;;22.80;70.30;;;;;;5027968;28;20041;-71
2021/06/27 06:58:17;;;;;;;11.98;8.00;;;22.90;69.80;;;;;;5032479;28;20022;-68
2021/06/27 07:00:42;;;;;;;16.10;7.88;;;23.00;69.20;;;;;;5036797;28;20394;-68
2021/06/27 07:03:09;;;;;;;13.52;7.68;;;22.90;69.70;;;;;;5028240;28;20051;-69
2021/06/27 07:05:35;;;;;;;14.02;8.38;;;22.90;70.20;;;;;;5027594;28;20025;-68
2021/06/27 07:08:00;;;;;;;14.20;7.70;;;22.80;69.40;;;;;;5045567;28;20025;-69
2021/06/27 07:10:26;;;;;;;15.50;7.72;;;22.90;69.20;;;;;;5046472;28;20040;-71
2021/06/27 07:12:51;;;;;;;13.40;7.75;;;23.00;69.70;;;;;;5035135;28;20036;-68
2021/06/27 07:15:17;;;;;;;13.05;6.90;;;23.10;69.10;;;;;;5018052;28;20021;-67
2021/06/27 07:17:43;;;;;;;17.48;7.05;;;23.20;67.80;;;;;;5037154;28;20120;-68
2021/06/27 07:20:10;;;;;;;10.75;6.85;;;23.20;67.80;;;;;;5027959;28;20071;-68
2021/06/27 07:22:36;;;;;;;12.13;6.60;;;23.30;67.60;;;;;;5044941;28;20064;-68
2021/06/27 07:25:03;;;;;;;11.95;6.88;;;23.20;68.00;;;;;;5047058;28;20061;-67
2021/06/27 07:27:29;;;;;;;12.45;5.93;;;23.30;67.50;;;;;;5031371;28;20767;-70
2021/06/27 07:29:54;;;;;;;9.32;6.70;;;23.40;67.20;;;;;;5049798;28;20037;-66
2021/06/27 07:32:20;;;;;;;9.80;6.68;;;23.40;67.00;;;;;;5050034;28;20025;-67
2021/06/27 07:34:45;;;;;;;10.50;6.30;;;23.60;66.50;;;;;;5031744;28;20025;-68
2021/06/27 07:37:11;;;;;;;8.80;6.07;;;23.90;65.20;;;;;;5031384;28;20040;-67
2021/06/27 07:39:37;;;;;;;11.95;5.97;;;24.10;64.30;;;;;;5049600;28;20098;-67
2021/06/27 07:42:02;;;;;;;7.95;5.35;;;23.90;64.80;;;;;;5031628;28;20162;-66
2021/06/27 07:44:28;;;;;;;10.05;5.93;;;23.80;65.70;;;;;;5031705;28;20517;-67
2021/06/27 07:46:54;;;;;;;12.05;5.90;;;23.90;65.00;;;;;;5046919;28;20862;-69
2021/06/27 07:49:19;;;;;;;10.05;6.07;;;23.80;65.40;;;;;;5031968;28;20482;-67
2021/06/27 07:51:45;;;;;;;12.32;5.82;;;23.80;66.00;;;;;;5048314;28;20406;-69
2021/06/27 07:54:10;;;;;;;13.15;6.60;;;23.60;66.60;;;;;;5051414;28;20489;-67
2021/06/27 07:56:36;;;;;;;14.98;6.18;;;23.50;65.20;;;;;;5051724;28;20106;-69
2021/06/27 07:59:01;;;;;;;10.63;6.95;;;23.40;65.70;;;;;;5052882;28;20100;-67
2021/06/27 08:01:27;;;;;;;10.27;6.28;;;23.40;66.10;;;;;;5052112;28;20104;-67
2021/06/27 08:03:53;;;;;;;11.50;7.55;;;23.30;66.60;;;;;;5051636;28;20037;-67
2021/06/27 08:06:18;;;;;;;133.88;51.28;;;23.20;67.10;;;;;;5035362;28;20025;-68
2021/06/27 08:08:44;;;;;;;52.05;20.98;;;23.10;67.10;;;;;;5033979;28;20021;-68
2021/06/27 08:11:10;;;;;;;61.90;26.20;;;23.10;67.50;;;;;;5051917;28;20035;-66
2021/06/27 08:13:36;;;;;;;96.40;36.08;;;23.00;67.30;;;;;;5024726;28;20037;-66
2021/06/27 08:16:02;;;;;;;39.03;15.93;;;23.10;68.40;;;;;;5052337;28;20032;-66
2021/06/27 08:18:27;;;;;;;116.25;43.97;;;23.20;67.70;;;;;;5034087;28;20033;-66
2021/06/27 08:20:53;;;;;;;147.75;52.53;;;23.40;67.70;;;;;;5052015;28;20390;-71
2021/06/27 08:23:19;;;;;;;58.38;24.75;;;23.40;67.90;;;;;;5052020;28;20037;-68
2021/06/27 08:25:45;;;;;;;50.70;22.20;;;23.60;66.60;;;;;;5052087;28;20546;-67
2021/06/27 08:28:10;;;;;;;43.47;20.48;;;23.70;66.20;;;;;;5045396;28;20032;-67
2021/06/27 08:30:36;;;;;;;68.45;28.88;;;23.80;66.10;;;;;;5034378;28;20394;-66
2021/06/27 08:33:02;;;;;;;62.53;25.23;;;23.70;66.50;;;;;;5050740;28;20025;-67
2021/06/27 08:35:29;;;;;;;39.20;18.73;;;23.80;66.50;;;;;;5028646;28;20025;-67
2021/06/27 08:37:55;;;;;;;34.28;15.18;;;23.80;66.00;;;;;;5048316;28;20112;-67
2021/06/27 08:40:21;;;;;;;21.25;10.50;;;24.00;65.50;;;;;;5049302;28;20040;-68
2021/06/27 08:42:47;;;;;;;17.38;8.88;;;24.10;65.50;;;;;;5036335;28;20544;-69
2021/06/27 08:45:16;;;;;;;10.82;6.70;;;24.30;64.30;;;;;;5050085;28;20021;-68
2021/06/27 08:47:43;;;;;;;25.60;11.30;;;24.30;62.80;;;;;;5049489;28;20029;-66
2021/06/27 08:50:11;;;;;;;11.95;6.80;;;24.30;64.30;;;;;;5049346;28;20025;-67
2021/06/27 08:52:38;;;;;;;15.95;6.50;;;24.50;62.90;;;;;;5049081;28;20025;-67
2021/06/27 08:55:05;;;;;;;15.75;7.78;;;24.50;62.90;;;;;;5031993;28;20056;-67
2021/06/27 08:57:31;;;;;;;14.77;6.70;;;24.40;62.40;;;;;;5048859;28;20029;-68
2021/06/27 08:59:59;;;;;;;21.35;9.75;;;24.50;62.30;;;;;;5049935;28;20501;-68
2021/06/27 09:02:25;;;;;;;10.52;5.70;;;24.50;62.70;;;;;;5047212;28;20017;-71
2021/06/27 09:04:50;;;;;;;10.00;5.20;;;24.70;62.60;;;;;;5047957;28;20170;-67
2021/06/27 09:07:38;;;;;;;7.60;4.80;;;24.90;61.10;;;;;;5033367;28;20021;-68
2021/06/27 09:10:05;;;;;;;7.85;4.90;;;25.00;60.20;;;;;;5050128;28;20017;-68
2021/06/27 09:12:49;;;;;;;6.82;4.90;;;25.10;60.00;;;;;;5052208;28;20037;-66
2021/06/27 09:15:40;;;;;;;7.35;4.50;;;25.20;59.30;;;;;;5043816;28;20017;-68
2021/06/27 09:18:08;;;;;;;6.80;4.53;;;25.20;59.10;;;;;;5047931;28;20473;-69
2021/06/27 09:20:34;;;;;;;7.07;4.38;;;25.30;59.10;;;;;;5033284;28;20036;-67
2021/06/27 09:23:00;;;;;;;8.60;4.53;;;25.20;59.50;;;;;;5050436;28;20119;-68
2021/06/27 09:25:31;;;;;;;8.48;4.50;;;25.20;59.00;;;;;;5051326;28;20503;-67
2021/06/27 09:28:05;;;;;;;21.88;5.97;;;25.30;59.00;;;;;;5033107;28;20055;-68
2021/06/27 09:30:52;;;;;;;10.15;4.95;;;25.30;59.60;;;;;;5050947;28;20032;-67
2021/06/27 09:33:19;;;;;;;9.40;4.82;;;25.10;59.80;;;;;;5037601;28;20258;-67
2021/06/27 09:36:06;;;;;;;7.38;4.18;;;25.10;59.90;;;;;;5045065;28;20039;-67
2021/06/27 09:38:50;;;;;;;12.20;5.20;;;25.20;59.70;;;;;;5034493;28;20407;-69
2021/06/27 09:41:34;;;;;;;8.57;4.40;;;25.20;60.00;;;;;;5040923;28;20036;-67
2021/06/27 09:44:11;;;;;;;6.80;4.40;;;25.30;59.90;;;;;;5041862;28;20033;-66
2021/06/27 09:46:51;;;;;;;10.07;4.72;;;25.40;59.00;;;;;;5029759;28;20039;-67
2021/06/27 09:49:26;;;;;;;13.02;4.88;;;25.50;59.80;;;;;;5050787;28;20108;-66
2021/06/27 09:51:54;;;;;;;9.77;4.70;;;25.40;59.00;;;;;;5049117;28;20437;-68
2021/06/27 09:54:22;;;;;;;8.18;4.78;;;25.40;59.80;;;;;;5041662;28;20029;-66
2021/06/27 09:56:49;;;;;;;11.55;4.90;;;25.40;58.70;;;;;;5043088;28;20045;-68
2021/06/27 09:59:31;;;;;;;9.48;4.05;;;25.40;59.20;;;;;;5027003;28;20405;-67
2021/06/27 10:01:57;;;;;;;7.72;4.22;;;25.40;58.90;;;;;;5032815;28;20112;-68
2021/06/27 10:04:29;;;;;;;7.25;3.88;;;25.40;58.70;;;;;;5033535;28;20514;-69
2021/06/27 10:06:58;;;;;;;;;;;25.60;57.10;;;;;;5051636;28;20036;-67
2021/06/27 10:09:29;;;;;;;14.75;4.50;;;25.60;56.20;;;;;;5050847;28;20294;-69
2021/06/27 10:12:05;;;;;;;8.85;4.57;;;25.70;55.90;;;;;;5031128;28;20032;-69
2021/06/27 10:15:07;;;;;;;11.13;5.00;;;25.60;56.30;;;;;;5021644;28;20033;-67
2021/06/27 10:17:29;;;;;;;6.18;4.05;;;25.60;56.40;;;;;;5050851;28;20025;-71
2021/06/27 10:19:55;;;;;;;6.85;4.00;;;25.90;55.40;;;;;;5041852;28;20052;-71
2021/06/27 10:22:23;;;;;;;7.22;4.10;;;26.00;54.10;;;;;;5051867;28;20044;-68
2021/06/27 10:24:49;;;;;;;10.70;3.85;;;26.10;53.40;;;;;;5051696;28;20549;-70
2021/06/27 10:27:14;;;;;;;7.50;3.97;;;26.10;55.00;;;;;;5033722;28;20025;-70
2021/06/27 10:29:47;;;;;;;5.75;3.55;;;26.00;55.80;;;;;;5051065;28;20028;-71
2021/06/27 10:32:14;;;;;;;8.38;4.05;;;26.10;54.30;;;;;;5033464;28;20036;-69
2021/06/27 10:34:39;;;;;;;7.25;3.80;;;26.10;53.40;;;;;;5051220;28;20033;-69
2021/06/27 10:37:33;;;;;;;9.13;4.07;;;26.10;54.00;;;;;;5051420;28;20099;-71
2021/06/27 10:40:08;;;;;;;7.60;3.80;;;26.00;55.20;;;;;;5041789;28;20025;-69
2021/06/27 10:42:48;;;;;;;6.63;4.10;;;25.90;52.30;;;;;;5044946;28;20359;-67
2021/06/27 10:45:18;;;;;;;5.60;3.67;;;26.10;54.10;;;;;;5032126;28;20028;-70
2021/06/27 10:47:45;;;;;;;5.80;3.58;;;26.20;52.80;;;;;;5032814;28;20487;-67
2021/06/27 10:50:12;;;;;;;7.10;3.40;;;26.20;52.50;;;;;;5046188;28;20025;-70
2021/06/27 10:52:56;;;;;;;6.20;3.50;;;26.10;53.20;;;;;;5036649;28;20499;-70
2021/06/27 10:55:29;;;;;;;6.15;3.47;;;26.20;51.10;;;;;;5037658;28;20045;-69
2021/06/27 10:58:01;;;;;;;5.82;3.67;;;26.30;52.20;;;;;;5033531;28;20032;-69
2021/06/27 11:00:47;;;;;;;6.18;3.40;;;26.30;52.30;;;;;;5053282;28;20071;-71
2021/06/27 11:03:36;;;;;;;5.90;3.47;;;26.20;50.80;;;;;;5056520;28;20494;-71
2021/06/27 11:06:12;;;;;;;5.07;3.40;;;26.10;50.10;;;;;;5055024;28;20033;-70
2021/06/27 11:08:45;;;;;;;6.72;3.70;;;25.90;50.90;;;;;;5054809;28;20559;-73
2021/06/27 11:11:22;;;;;;;6.88;3.30;;;25.90;50.40;;;;;;5054204;28;20036;-70
2021/06/27 11:14:14;;;;;;;5.72;3.35;;;25.90;50.20;;;;;;5036847;28;20032;-68
2021/06/27 11:17:07;;;;;;;6.15;3.03;;;25.90;49.30;;;;;;5054277;28;20029;-70
2021/06/27 11:19:37;;;;;;;5.50;2.90;;;25.90;50.30;;;;;;5044590;28;20059;-68
2021/06/27 11:22:28;;;;;;;7.57;3.13;;;25.70;51.90;;;;;;5054814;28;20033;-69
2021/06/27 11:24:55;;;;;;;5.68;2.80;;;25.80;51.90;;;;;;5048628;28;20034;-69
2021/06/27 11:27:32;;;;;;;8.13;3.38;;;25.80;51.30;;;;;;5046107;28;20498;-69
2021/06/27 11:29:59;;;;;;;11.38;3.50;;;25.70;53.60;;;;;;5047666;28;20487;-71
2021/06/27 11:32:25;;;;;;;6.65;3.20;;;25.60;54.20;;;;;;5036069;28;20055;-70
2021/06/27 11:34:52;;;;;;;5.55;3.35;;;25.60;53.00;;;;;;5040280;28;20033;-71
2021/06/27 11:37:21;;;;;;;6.78;3.67;;;25.50;52.60;;;;;;5049486;28;20052;-71
2021/06/27 11:39:54;;;;;;;4.68;3.00;;;25.50;54.20;;;;;;5036185;28;20033;-68
2021/06/27 11:42:22;;;;;;;6.38;3.20;;;25.50;53.00;;;;;;5023862;28;20144;-68
2021/06/27 11:45:15;;;;;;;6.80;3.75;;;25.50;52.50;;;;;;5046652;28;20082;-69
2021/06/27 11:47:57;;;;;;;7.15;3.50;;;25.40;53.10;;;;;;5045441;28;20017;-66
2021/06/27 11:50:29;;;;;;;6.43;3.65;;;25.40;52.70;;;;;;5030782;28;20398;-70
2021/06/27 11:53:00;;;;;;;8.20;3.45;;;25.40;51.20;;;;;;5025706;28;20114;-69
2021/06/27 11:55:26;;;;;;;7.15;3.08;;;25.40;51.70;;;;;;5027329;28;20056;-68
2021/06/27 11:57:52;;;;;;;6.00;3.13;;;25.40;51.50;;;;;;5044505;28;20090;-68
2021/06/27 12:00:18;;;;;;;5.00;3.00;;;25.30;51.80;;;;;;5051364;28;20033;-69
2021/06/27 12:02:44;;;;;;;6.80;3.30;;;25.40;50.30;;;;;;5050408;28;20048;-67
2021/06/27 12:05:14;;;;;;;6.15;3.03;;;25.30;49.30;;;;;;5017267;28;20030;-68
2021/06/27 12:07:47;;;;;;;5.15;3.00;;;25.30;49.70;;;;;;5034671;28;20032;-68
2021/06/27 12:10:15;;;;;;;6.32;3.30;;;25.20;50.00;;;;;;5035805;28;20079;-67
2021/06/27 12:12:44;;;;;;;5.40;3.40;;;25.20;50.70;;;;;;5040086;28;20025;-68
2021/06/27 12:15:19;;;;;;;5.45;3.05;;;25.30;50.10;;;;;;5055863;28;20025;-68
2021/06/27 12:17:53;;;;;;;6.78;3.15;;;25.30;50.10;;;;;;5037582;28;20602;-67
2021/06/27 12:20:19;;;;;;;6.47;3.50;;;25.30;48.50;;;;;;5053894;28;20033;-69
2021/06/27 12:22:52;;;;;;;6.35;3.33;;;25.30;49.50;;;;;;5052719;28;20033;-69
2021/06/27 12:25:45;;;;;;;5.10;3.28;;;25.20;51.30;;;;;;5030526;28;20079;-68
2021/06/27 12:28:17;;;;;;;5.20;3.10;;;25.20;51.00;;;;;;5035252;28;20128;-68
2021/06/27 12:30:47;;;;;;;5.43;3.55;;;25.20;52.80;;;;;;5027929;28;20033;-70
2021/06/27 12:33:19;;;;;;;5.63;3.13;;;25.20;52.90;;;;;;5054817;28;20044;-69
2021/06/27 12:35:51;;;;;;;6.63;3.45;;;25.30;54.30;;;;;;5054092;28;20029;-68
2021/06/27 12:38:17;;;;;;;5.22;3.10;;;25.30;53.50;;;;;;5050786;28;20029;-68